sensor_id;sensor_type;location;lat;lon;timestamp;pressure;altitude;pressure_sealevel;temperature;humidity
83025;BME280;72958;53.326;-1.496;2024-01-25T00:00:39;100585.24;;;5.41;52.82
83025;BME280;72958;53.326;-1.496;2024-01-25T00:03:37;100586.31;;;5.36;53.20
83025;BME280;72958;53.326;-1.496;2024-01-25T00:06:10;100590.59;;;6.05;49.94
83025;BME280;72958;53.326;-1.496;2024-01-25T00:08:44;100586.11;;;5.97;49.56
83025;BME280;72958;53.326;-1.496;2024-01-25T00:11:30;100577.53;;;5.90;49.67
83025;BME280;72958;53.326;-1.496;2024-01-25T00:14:11;100582.17;;;5.77;50.45
83025;BME280;72958;53.326;-1.496;2024-01-25T00:16:41;100576.11;;;4.88;51.40
83025;BME280;72958;53.326;-1.496;2024-01-25T00:19:17;100591.14;;;4.94;51.31
83025;BME280;72958;53.326;-1.496;2024-01-25T00:21:56;100597.39;;;5.00;51.17
83025;BME280;72958;53.326;-1.496;2024-01-25T00:24:32;100599.03;;;4.68;51.47
83025;BME280;72958;53.326;-1.496;2024-01-25T00:27:05;100596.33;;;4.89;51.63
83025;BME280;72958;53.326;-1.496;2024-01-25T00:29:38;100591.24;;;4.56;51.52
83025;BME280;72958;53.326;-1.496;2024-01-25T00:33:05;100583.28;;;4.91;52.33
83025;BME280;72958;53.326;-1.496;2024-01-25T00:35:43;100577.70;;;4.40;54.09
83025;BME280;72958;53.326;-1.496;2024-01-25T00:38:26;100570.58;;;3.81;56.50
83025;BME280;72958;53.326;-1.496;2024-01-25T00:41:00;100562.85;;;4.20;55.61
83025;BME280;72958;53.326;-1.496;2024-01-25T00:44:02;100563.02;;;4.36;55.77
83025;BME280;72958;53.326;-1.496;2024-01-25T00:46:33;100563.07;;;4.33;54.45
83025;BME280;72958;53.326;-1.496;2024-01-25T00:49:06;100560.74;;;4.41;54.18
83025;BME280;72958;53.326;-1.496;2024-01-25T00:52:09;100560.85;;;4.21;54.40
83025;BME280;72958;53.326;-1.496;2024-01-25T00:54:37;100559.58;;;4.91;52.73
83025;BME280;72958;53.326;-1.496;2024-01-25T01:00:23;100551.86;;;3.67;56.19
83025;BME280;72958;53.326;-1.496;2024-01-25T01:02:53;100550.87;;;2.83;58.22
83025;BME280;72958;53.326;-1.496;2024-01-25T01:05:19;100540.39;;;3.36;57.94
83025;BME280;72958;53.326;-1.496;2024-01-25T01:07:52;100537.72;;;2.91;59.13
83025;BME280;72958;53.326;-1.496;2024-01-25T01:11:42;100530.16;;;3.30;59.97
83025;BME280;72958;53.326;-1.496;2024-01-25T01:14:07;100526.66;;;2.93;60.02
83025;BME280;72958;53.326;-1.496;2024-01-25T01:16:50;100529.96;;;3.22;59.76
83025;BME280;72958;53.326;-1.496;2024-01-25T01:19:17;100530.97;;;3.02;59.19
83025;BME280;72958;53.326;-1.496;2024-01-25T01:22:06;100529.11;;;3.96;57.03
83025;BME280;72958;53.326;-1.496;2024-01-25T01:25:54;100520.94;;;3.92;56.21
83025;BME280;72958;53.326;-1.496;2024-01-25T01:28:27;100522.45;;;4.44;55.98
83025;BME280;72958;53.326;-1.496;2024-01-25T01:32:02;100520.55;;;4.72;53.86
83025;BME280;72958;53.326;-1.496;2024-01-25T01:34:35;100517.90;;;4.66;53.40
83025;BME280;72958;53.326;-1.496;2024-01-25T01:37:50;100517.61;;;4.67;53.84
83025;BME280;72958;53.326;-1.496;2024-01-25T01:40:39;100516.34;;;4.50;54.19
83025;BME280;72958;53.326;-1.496;2024-01-25T01:43:07;100510.60;;;4.79;53.46
83025;BME280;72958;53.326;-1.496;2024-01-25T01:45:36;100501.77;;;4.56;53.89
83025;BME280;72958;53.326;-1.496;2024-01-25T01:48:45;100492.47;;;4.19;54.58
83025;BME280;72958;53.326;-1.496;2024-01-25T01:51:58;100490.51;;;5.02;53.32
83025;BME280;72958;53.326;-1.496;2024-01-25T01:55:12;100490.85;;;4.91;52.89
83025;BME280;72958;53.326;-1.496;2024-01-25T01:57:55;100490.94;;;5.24;52.76
83025;BME280;72958;53.326;-1.496;2024-01-25T02:00:39;100493.49;;;5.02;52.51
83025;BME280;72958;53.326;-1.496;2024-01-25T02:03:43;100490.29;;;4.74;52.41
83025;BME280;72958;53.326;-1.496;2024-01-25T02:06:10;100481.68;;;4.71;52.58
83025;BME280;72958;53.326;-1.496;2024-01-25T02:08:54;100466.31;;;4.76;52.57
83025;BME280;72958;53.326;-1.496;2024-01-25T02:11:23;100462.47;;;4.60;52.91
83025;BME280;72958;53.326;-1.496;2024-01-25T02:14:12;100453.03;;;4.62;53.94
83025;BME280;72958;53.326;-1.496;2024-01-25T02:16:52;100447.88;;;4.60;53.97
83025;BME280;72958;53.326;-1.496;2024-01-25T02:19:52;100456.66;;;4.74;53.39
83025;BME280;72958;53.326;-1.496;2024-01-25T02:22:23;100461.15;;;5.07;53.21
83025;BME280;72958;53.326;-1.496;2024-01-25T02:25:13;100461.33;;;4.83;52.73
83025;BME280;72958;53.326;-1.496;2024-01-25T02:28:19;100468.67;;;4.89;52.33
83025;BME280;72958;53.326;-1.496;2024-01-25T02:30:50;100473.28;;;4.82;52.23
83025;BME280;72958;53.326;-1.496;2024-01-25T02:34:00;100477.60;;;5.07;52.07
83025;BME280;72958;53.326;-1.496;2024-01-25T02:36:30;100483.82;;;4.47;52.31
83025;BME280;72958;53.326;-1.496;2024-01-25T02:39:00;100477.94;;;4.39;53.61
83025;BME280;72958;53.326;-1.496;2024-01-25T02:41:29;100469.97;;;4.86;52.93
83025;BME280;72958;53.326;-1.496;2024-01-25T02:44:10;100467.16;;;4.87;53.59
83025;BME280;72958;53.326;-1.496;2024-01-25T02:47:18;100462.24;;;4.72;53.25
83025;BME280;72958;53.326;-1.496;2024-01-25T02:49:42;100443.47;;;4.93;53.27
83025;BME280;72958;53.326;-1.496;2024-01-25T02:52:23;100440.54;;;4.43;52.99
83025;BME280;72958;53.326;-1.496;2024-01-25T02:55:38;100432.11;;;4.83;52.84
83025;BME280;72958;53.326;-1.496;2024-01-25T02:58:28;100438.12;;;4.63;52.95
83025;BME280;72958;53.326;-1.496;2024-01-25T03:01:13;100440.57;;;4.75;53.33
83025;BME280;72958;53.326;-1.496;2024-01-25T03:03:53;100433.47;;;4.61;53.31
83025;BME280;72958;53.326;-1.496;2024-01-25T03:06:34;100420.23;;;4.69;52.88
83025;BME280;72958;53.326;-1.496;2024-01-25T03:09:29;100405.74;;;4.48;53.12
83025;BME280;72958;53.326;-1.496;2024-01-25T03:12:17;100402.66;;;4.81;53.11
83025;BME280;72958;53.326;-1.496;2024-01-25T03:14:28;100402.17;;;4.61;53.63
83025;BME280;72958;53.326;-1.496;2024-01-25T03:17:30;100398.46;;;4.67;53.17
83025;BME280;72958;53.326;-1.496;2024-01-25T03:20:12;100397.51;;;4.62;53.10
83025;BME280;72958;53.326;-1.496;2024-01-25T03:23:26;100397.70;;;4.87;52.60
83025;BME280;72958;53.326;-1.496;2024-01-25T03:25:53;100385.64;;;5.78;50.59
83025;BME280;72958;53.326;-1.496;2024-01-25T03:29:06;100393.58;;;4.64;53.22
83025;BME280;72958;53.326;-1.496;2024-01-25T03:31:28;100392.99;;;4.15;55.17
83025;BME280;72958;53.326;-1.496;2024-01-25T03:34:43;100397.33;;;4.03;55.22
83025;BME280;72958;53.326;-1.496;2024-01-25T03:37:20;100389.12;;;3.69;56.28
83025;BME280;72958;53.326;-1.496;2024-01-25T03:39:55;100394.11;;;4.52;54.24
83025;BME280;72958;53.326;-1.496;2024-01-25T03:42:30;100395.02;;;4.21;54.46
83025;BME280;72958;53.326;-1.496;2024-01-25T03:45:08;100398.68;;;3.78;56.04
83025;BME280;72958;53.326;-1.496;2024-01-25T03:47:33;100406.01;;;4.00;56.14
83025;BME280;72958;53.326;-1.496;2024-01-25T03:50:19;100400.06;;;4.04;56.27
83025;BME280;72958;53.326;-1.496;2024-01-25T03:52:45;100396.48;;;4.14;55.94
83025;BME280;72958;53.326;-1.496;2024-01-25T03:55:28;100395.56;;;4.15;56.11
83025;BME280;72958;53.326;-1.496;2024-01-25T03:58:13;100382.80;;;3.85;57.38
83025;BME280;72958;53.326;-1.496;2024-01-25T04:00:41;100371.93;;;3.96;57.27
83025;BME280;72958;53.326;-1.496;2024-01-25T04:03:32;100356.16;;;4.52;56.19
83025;BME280;72958;53.326;-1.496;2024-01-25T04:05:59;100345.03;;;4.36;56.41
83025;BME280;72958;53.326;-1.496;2024-01-25T04:08:33;100351.65;;;4.65;56.02
83025;BME280;72958;53.326;-1.496;2024-01-25T04:11:15;100349.41;;;4.52;55.90
83025;BME280;72958;53.326;-1.496;2024-01-25T04:14:27;100344.98;;;4.60;54.58
83025;BME280;72958;53.326;-1.496;2024-01-25T04:17:21;100350.93;;;4.62;54.36
83025;BME280;72958;53.326;-1.496;2024-01-25T04:20:20;100354.33;;;5.01;53.91
83025;BME280;72958;53.326;-1.496;2024-01-25T04:23:00;100355.42;;;4.47;55.18
83025;BME280;72958;53.326;-1.496;2024-01-25T04:25:51;100350.10;;;4.53;54.05
83025;BME280;72958;53.326;-1.496;2024-01-25T04:28:17;100336.85;;;5.60;52.90
83025;BME280;72958;53.326;-1.496;2024-01-25T04:30:51;100326.13;;;4.97;53.60
83025;BME280;72958;53.326;-1.496;2024-01-25T04:33:18;100323.40;;;4.32;55.41
83025;BME280;72958;53.326;-1.496;2024-01-25T04:36:25;100310.95;;;4.70;54.66
83025;BME280;72958;53.326;-1.496;2024-01-25T04:38:50;100305.23;;;4.63;53.95
83025;BME280;72958;53.326;-1.496;2024-01-25T04:41:27;100301.36;;;4.35;55.02
83025;BME280;72958;53.326;-1.496;2024-01-25T04:44:53;100299.81;;;4.61;54.64
83025;BME280;72958;53.326;-1.496;2024-01-25T04:47:55;100299.72;;;4.42;55.63
83025;BME280;72958;53.326;-1.496;2024-01-25T04:50:21;100289.99;;;4.46;55.60
83025;BME280;72958;53.326;-1.496;2024-01-25T04:52:53;100295.89;;;4.30;55.83
83025;BME280;72958;53.326;-1.496;2024-01-25T04:55:36;100292.71;;;4.32;56.14
83025;BME280;72958;53.326;-1.496;2024-01-25T04:58:01;100287.12;;;4.27;56.27
83025;BME280;72958;53.326;-1.496;2024-01-25T05:00:30;100282.87;;;4.92;54.92
83025;BME280;72958;53.326;-1.496;2024-01-25T05:03:01;100289.15;;;4.28;55.18
83025;BME280;72958;53.326;-1.496;2024-01-25T05:06:43;100287.98;;;4.94;55.17
83025;BME280;72958;53.326;-1.496;2024-01-25T05:09:09;100289.89;;;4.86;55.18
83025;BME280;72958;53.326;-1.496;2024-01-25T05:11:38;100288.48;;;4.45;54.80
83025;BME280;72958;53.326;-1.496;2024-01-25T05:14:33;100286.79;;;4.42;55.08
83025;BME280;72958;53.326;-1.496;2024-01-25T05:17:12;100280.46;;;4.69;54.97
83025;BME280;72958;53.326;-1.496;2024-01-25T05:19:41;100274.93;;;4.81;54.32
83025;BME280;72958;53.326;-1.496;2024-01-25T05:22:08;100276.01;;;4.36;56.12
83025;BME280;72958;53.326;-1.496;2024-01-25T05:24:46;100276.23;;;4.06;55.81
83025;BME280;72958;53.326;-1.496;2024-01-25T05:27:11;100272.12;;;4.43;55.79
83025;BME280;72958;53.326;-1.496;2024-01-25T05:29:54;100265.71;;;4.60;55.45
83025;BME280;72958;53.326;-1.496;2024-01-25T05:32:40;100256.34;;;4.20;55.87
83025;BME280;72958;53.326;-1.496;2024-01-25T05:35:08;100254.56;;;4.68;55.40
83025;BME280;72958;53.326;-1.496;2024-01-25T05:37:38;100253.57;;;4.41;55.51
83025;BME280;72958;53.326;-1.496;2024-01-25T05:40:12;100251.19;;;5.39;54.06
83025;BME280;72958;53.326;-1.496;2024-01-25T05:42:43;100250.24;;;4.71;54.91
83025;BME280;72958;53.326;-1.496;2024-01-25T05:45:37;100240.88;;;4.87;54.71
83025;BME280;72958;53.326;-1.496;2024-01-25T05:48:12;100235.44;;;5.59;53.31
83025;BME280;72958;53.326;-1.496;2024-01-25T05:50:41;100235.15;;;5.57;53.25
83025;BME280;72958;53.326;-1.496;2024-01-25T05:53:38;100233.82;;;5.57;53.10
83025;BME280;72958;53.326;-1.496;2024-01-25T05:56:11;100227.00;;;5.45;53.45
83025;BME280;72958;53.326;-1.496;2024-01-25T05:58:58;100223.67;;;5.58;53.43
83025;BME280;72958;53.326;-1.496;2024-01-25T06:01:44;100215.07;;;5.27;52.90
83025;BME280;72958;53.326;-1.496;2024-01-25T06:04:10;100223.83;;;5.88;51.99
83025;BME280;72958;53.326;-1.496;2024-01-25T06:06:45;100232.18;;;5.39;52.58
83025;BME280;72958;53.326;-1.496;2024-01-25T06:09:34;100231.27;;;5.22;54.13
83025;BME280;72958;53.326;-1.496;2024-01-25T06:12:31;100226.30;;;5.61;53.72
83025;BME280;72958;53.326;-1.496;2024-01-25T06:15:17;100217.87;;;5.65;53.56
83025;BME280;72958;53.326;-1.496;2024-01-25T06:18:09;100217.49;;;5.68;53.70
83025;BME280;72958;53.326;-1.496;2024-01-25T06:20:51;100220.09;;;5.97;53.20
83025;BME280;72958;53.326;-1.496;2024-01-25T06:23:31;100215.32;;;6.13;52.26
83025;BME280;72958;53.326;-1.496;2024-01-25T06:26:01;100209.09;;;5.77;52.21
83025;BME280;72958;53.326;-1.496;2024-01-25T06:28:34;100202.50;;;5.84;54.10
83025;BME280;72958;53.326;-1.496;2024-01-25T06:31:01;100198.72;;;6.09;53.52
83025;BME280;72958;53.326;-1.496;2024-01-25T06:33:44;100197.89;;;6.40;52.76
83025;BME280;72958;53.326;-1.496;2024-01-25T06:36:10;100200.49;;;6.38;53.29
83025;BME280;72958;53.326;-1.496;2024-01-25T06:38:39;100193.02;;;5.78;53.52
83025;BME280;72958;53.326;-1.496;2024-01-25T06:41:14;100180.73;;;6.14;52.82
83025;BME280;72958;53.326;-1.496;2024-01-25T06:44:32;100171.86;;;6.53;52.91
83025;BME280;72958;53.326;-1.496;2024-01-25T06:46:59;100182.18;;;6.60;51.67
83025;BME280;72958;53.326;-1.496;2024-01-25T06:49:39;100180.20;;;6.77;50.97
83025;BME280;72958;53.326;-1.496;2024-01-25T06:52:33;100174.93;;;6.63;51.91
83025;BME280;72958;53.326;-1.496;2024-01-25T06:55:30;100162.44;;;6.54;52.46
83025;BME280;72958;53.326;-1.496;2024-01-25T06:58:20;100161.81;;;5.97;53.46
83025;BME280;72958;53.326;-1.496;2024-01-25T07:00:50;100162.96;;;6.10;53.38
83025;BME280;72958;53.326;-1.496;2024-01-25T07:03:32;100158.57;;;6.12;53.69
83025;BME280;72958;53.326;-1.496;2024-01-25T07:06:12;100151.31;;;5.35;56.49
83025;BME280;72958;53.326;-1.496;2024-01-25T07:08:54;100152.45;;;5.96;55.01
83025;BME280;72958;53.326;-1.496;2024-01-25T07:12:01;100146.84;;;5.85;55.34
83025;BME280;72958;53.326;-1.496;2024-01-25T07:14:19;100148.44;;;6.00;54.67
83025;BME280;72958;53.326;-1.496;2024-01-25T07:17:12;100145.15;;;6.44;54.71
83025;BME280;72958;53.326;-1.496;2024-01-25T07:19:46;100146.98;;;6.02;55.17
83025;BME280;72958;53.326;-1.496;2024-01-25T07:22:13;100145.00;;;6.08;55.33
83025;BME280;72958;53.326;-1.496;2024-01-25T07:24:47;100137.61;;;6.44;54.85
83025;BME280;72958;53.326;-1.496;2024-01-25T07:27:44;100139.93;;;6.31;55.69
83025;BME280;72958;53.326;-1.496;2024-01-25T07:30:39;100135.49;;;6.35;55.21
83025;BME280;72958;53.326;-1.496;2024-01-25T07:33:11;100133.88;;;5.82;56.47
83025;BME280;72958;53.326;-1.496;2024-01-25T07:36:16;100128.33;;;5.81;57.24
83025;BME280;72958;53.326;-1.496;2024-01-25T07:39:14;100122.79;;;6.42;55.52
83025;BME280;72958;53.326;-1.496;2024-01-25T07:41:53;100125.91;;;6.84;54.75
83025;BME280;72958;53.326;-1.496;2024-01-25T07:44:34;100124.01;;;6.64;55.23
83025;BME280;72958;53.326;-1.496;2024-01-25T07:47:11;100121.74;;;6.88;54.36
83025;BME280;72958;53.326;-1.496;2024-01-25T07:50:18;100112.51;;;7.30;54.00
83025;BME280;72958;53.326;-1.496;2024-01-25T07:53:00;100108.49;;;6.56;54.97
83025;BME280;72958;53.326;-1.496;2024-01-25T07:55:50;100102.23;;;6.92;54.53
83025;BME280;72958;53.326;-1.496;2024-01-25T07:58:15;100100.45;;;6.68;54.82
83025;BME280;72958;53.326;-1.496;2024-01-25T08:00:52;100100.08;;;7.03;54.77
83025;BME280;72958;53.326;-1.496;2024-01-25T08:03:54;100098.99;;;7.16;54.51
83025;BME280;72958;53.326;-1.496;2024-01-25T08:06:35;100093.48;;;6.95;55.12
83025;BME280;72958;53.326;-1.496;2024-01-25T08:09:05;100090.10;;;6.72;55.75
83025;BME280;72958;53.326;-1.496;2024-01-25T08:11:42;100087.53;;;6.86;56.00
83025;BME280;72958;53.326;-1.496;2024-01-25T08:14:32;100084.84;;;6.74;55.94
83025;BME280;72958;53.326;-1.496;2024-01-25T08:17:29;100076.27;;;6.53;55.90
83025;BME280;72958;53.326;-1.496;2024-01-25T08:20:08;100078.12;;;6.38;56.12
83025;BME280;72958;53.326;-1.496;2024-01-25T08:23:28;100079.98;;;7.17;54.77
83025;BME280;72958;53.326;-1.496;2024-01-25T08:26:06;100079.79;;;6.92;55.45
83025;BME280;72958;53.326;-1.496;2024-01-25T08:28:33;100080.12;;;6.19;56.89
83025;BME280;72958;53.326;-1.496;2024-01-25T08:31:31;100076.43;;;5.49;59.51
83025;BME280;72958;53.326;-1.496;2024-01-25T08:33:44;100072.10;;;6.34;57.17
83025;BME280;72958;53.326;-1.496;2024-01-25T08:36:10;100071.48;;;6.37;57.90
83025;BME280;72958;53.326;-1.496;2024-01-25T08:38:39;100066.48;;;6.24;57.99
83025;BME280;72958;53.326;-1.496;2024-01-25T08:41:13;100073.18;;;6.01;57.93
83025;BME280;72958;53.326;-1.496;2024-01-25T08:43:40;100072.85;;;6.88;56.43
83025;BME280;72958;53.326;-1.496;2024-01-25T08:46:06;100069.53;;;6.21;58.79
83025;BME280;72958;53.326;-1.496;2024-01-25T08:52:15;100066.01;;;5.91;56.84
83025;BME280;72958;53.326;-1.496;2024-01-25T08:55:28;100062.28;;;7.33;55.13
83025;BME280;72958;53.326;-1.496;2024-01-25T09:00:56;100054.49;;;7.92;54.94
83025;BME280;72958;53.326;-1.496;2024-01-25T09:03:55;100050.39;;;7.41;55.10
83025;BME280;72958;53.326;-1.496;2024-01-25T09:06:19;100051.94;;;7.81;55.16
83025;BME280;72958;53.326;-1.496;2024-01-25T09:08:40;100042.71;;;7.68;55.25
83025;BME280;72958;53.326;-1.496;2024-01-25T09:11:06;100040.83;;;7.62;56.20
83025;BME280;72958;53.326;-1.496;2024-01-25T09:13:28;100038.45;;;7.53;56.74
83025;BME280;72958;53.326;-1.496;2024-01-25T09:16:09;100033.76;;;8.11;55.69
83025;BME280;72958;53.326;-1.496;2024-01-25T09:18:41;100039.76;;;7.48;57.22
83025;BME280;72958;53.326;-1.496;2024-01-25T09:21:39;100033.93;;;8.23;56.04
83025;BME280;72958;53.326;-1.496;2024-01-25T09:24:36;100023.75;;;8.07;56.07
83025;BME280;72958;53.326;-1.496;2024-01-25T09:27:14;100013.91;;;8.10;56.46
83025;BME280;72958;53.326;-1.496;2024-01-25T09:29:53;100009.88;;;8.29;55.84
83025;BME280;72958;53.326;-1.496;2024-01-25T09:32:50;100013.15;;;8.50;55.30
83025;BME280;72958;53.326;-1.496;2024-01-25T09:35:19;100008.37;;;8.64;54.94
83025;BME280;72958;53.326;-1.496;2024-01-25T09:37:52;100010.47;;;8.57;55.02
83025;BME280;72958;53.326;-1.496;2024-01-25T09:40:18;100018.00;;;8.28;57.09
83025;BME280;72958;53.326;-1.496;2024-01-25T09:42:54;100015.92;;;8.95;55.50
83025;BME280;72958;53.326;-1.496;2024-01-25T09:45:24;100020.86;;;8.47;56.25
83025;BME280;72958;53.326;-1.496;2024-01-25T09:47:50;100024.24;;;9.14;55.60
83025;BME280;72958;53.326;-1.496;2024-01-25T09:50:33;100016.26;;;8.81;56.40
83025;BME280;72958;53.326;-1.496;2024-01-25T09:53:17;100021.15;;;9.41;55.02
83025;BME280;72958;53.326;-1.496;2024-01-25T09:55:44;100021.45;;;8.95;55.53
83025;BME280;72958;53.326;-1.496;2024-01-25T09:58:38;100020.94;;;8.95;56.28
83025;BME280;72958;53.326;-1.496;2024-01-25T10:01:16;100028.03;;;8.70;56.65
83025;BME280;72958;53.326;-1.496;2024-01-25T10:03:36;100029.04;;;9.76;54.99
83025;BME280;72958;53.326;-1.496;2024-01-25T10:07:36;100020.31;;;8.82;57.20
83025;BME280;72958;53.326;-1.496;2024-01-25T10:09:52;100025.72;;;8.62;57.91
83025;BME280;72958;53.326;-1.496;2024-01-25T10:12:29;100024.93;;;7.62;61.15
83025;BME280;72958;53.326;-1.496;2024-01-25T10:14:59;100018.26;;;8.19;59.65
83025;BME280;72958;53.326;-1.496;2024-01-25T10:17:32;100012.15;;;8.45;59.97
83025;BME280;72958;53.326;-1.496;2024-01-25T10:20:13;100009.11;;;9.17;57.71
83025;BME280;72958;53.326;-1.496;2024-01-25T10:22:31;100008.91;;;9.33;55.61
83025;BME280;72958;53.326;-1.496;2024-01-25T10:25:12;100010.56;;;9.27;56.14
83025;BME280;72958;53.326;-1.496;2024-01-25T10:28:04;100012.61;;;8.70;59.16
83025;BME280;72958;53.326;-1.496;2024-01-25T10:30:34;100010.92;;;8.83;58.58
83025;BME280;72958;53.326;-1.496;2024-01-25T10:32:59;100009.87;;;9.22;57.58
83025;BME280;72958;53.326;-1.496;2024-01-25T10:35:35;100011.56;;;8.83;58.98
83025;BME280;72958;53.326;-1.496;2024-01-25T10:40:57;100002.42;;;8.52;58.95
83025;BME280;72958;53.326;-1.496;2024-01-25T10:43:41;100000.86;;;8.06;60.82
83025;BME280;72958;53.326;-1.496;2024-01-25T10:49:14;99999.43;;;8.70;60.41
83025;BME280;72958;53.326;-1.496;2024-01-25T10:51:36;99988.49;;;8.30;60.54
83025;BME280;72958;53.326;-1.496;2024-01-25T10:54:06;99989.16;;;8.89;58.61
83025;BME280;72958;53.326;-1.496;2024-01-25T10:56:53;99984.72;;;8.91;59.13
83025;BME280;72958;53.326;-1.496;2024-01-25T10:59:15;99970.67;;;8.80;59.83
83025;BME280;72958;53.326;-1.496;2024-01-25T11:01:55;99963.15;;;9.18;58.53
83025;BME280;72958;53.326;-1.496;2024-01-25T11:04:20;99971.54;;;8.59;59.89
83025;BME280;72958;53.326;-1.496;2024-01-25T11:07:43;99971.41;;;9.45;57.21
83025;BME280;72958;53.326;-1.496;2024-01-25T11:10:46;99960.10;;;9.92;56.36
83025;BME280;72958;53.326;-1.496;2024-01-25T11:13:25;99959.67;;;10.08;57.05
83025;BME280;72958;53.326;-1.496;2024-01-25T11:16:13;99958.10;;;9.86;57.01
83025;BME280;72958;53.326;-1.496;2024-01-25T11:18:53;99955.85;;;10.76;54.24
83025;BME280;72958;53.326;-1.496;2024-01-25T11:21:39;99961.57;;;10.82;54.06
83025;BME280;72958;53.326;-1.496;2024-01-25T11:24:01;99963.84;;;10.01;55.80
83025;BME280;72958;53.326;-1.496;2024-01-25T11:27:31;99965.26;;;9.91;56.03
83025;BME280;72958;53.326;-1.496;2024-01-25T11:30:07;99961.07;;;11.21;53.55
83025;BME280;72958;53.326;-1.496;2024-01-25T11:32:33;99955.65;;;10.25;55.53
83025;BME280;72958;53.326;-1.496;2024-01-25T11:35:08;99952.02;;;10.86;54.48
83025;BME280;72958;53.326;-1.496;2024-01-25T11:37:33;99951.66;;;10.92;54.60
83025;BME280;72958;53.326;-1.496;2024-01-25T11:40:16;99955.27;;;10.21;55.23
83025;BME280;72958;53.326;-1.496;2024-01-25T11:42:59;99946.32;;;9.25;58.75
83025;BME280;72958;53.326;-1.496;2024-01-25T11:45:49;99935.54;;;9.34;58.44
83025;BME280;72958;53.326;-1.496;2024-01-25T11:48:33;99924.79;;;9.85;56.90
83025;BME280;72958;53.326;-1.496;2024-01-25T11:51:10;99913.26;;;10.48;54.97
83025;BME280;72958;53.326;-1.496;2024-01-25T11:53:32;99909.47;;;10.02;56.38
83025;BME280;72958;53.326;-1.496;2024-01-25T11:56:14;99905.60;;;10.31;54.96
83025;BME280;72958;53.326;-1.496;2024-01-25T11:58:48;99895.07;;;10.89;53.93
83025;BME280;72958;53.326;-1.496;2024-01-25T12:02:32;99884.94;;;11.39;52.79
83025;BME280;72958;53.326;-1.496;2024-01-25T12:04:51;99873.76;;;11.77;51.00
83025;BME280;72958;53.326;-1.496;2024-01-25T12:07:38;99867.95;;;11.73;50.71
83025;BME280;72958;53.326;-1.496;2024-01-25T12:10:02;99856.44;;;12.08;50.20
83025;BME280;72958;53.326;-1.496;2024-01-25T12:12:56;99861.22;;;11.16;51.24
83025;BME280;72958;53.326;-1.496;2024-01-25T12:15:22;99861.48;;;12.18;50.74
83025;BME280;72958;53.326;-1.496;2024-01-25T12:18:00;99856.33;;;12.04;50.81
83025;BME280;72958;53.326;-1.496;2024-01-25T12:20:18;99851.97;;;12.34;49.40
83025;BME280;72958;53.326;-1.496;2024-01-25T12:23:46;99845.88;;;12.07;50.92
83025;BME280;72958;53.326;-1.496;2024-01-25T12:26:27;99834.39;;;11.79;50.92
83025;BME280;72958;53.326;-1.496;2024-01-25T12:28:54;99834.53;;;11.59;50.94
83025;BME280;72958;53.326;-1.496;2024-01-25T12:31:26;99835.98;;;12.06;51.48
83025;BME280;72958;53.326;-1.496;2024-01-25T12:34:13;99834.59;;;11.01;53.24
83025;BME280;72958;53.326;-1.496;2024-01-25T12:36:28;99828.62;;;11.50;53.12
83025;BME280;72958;53.326;-1.496;2024-01-25T12:39:05;99826.50;;;11.68;52.55
83025;BME280;72958;53.326;-1.496;2024-01-25T12:41:29;99818.17;;;11.55;51.93
83025;BME280;72958;53.326;-1.496;2024-01-25T12:44:05;99815.03;;;12.29;50.18
83025;BME280;72958;53.326;-1.496;2024-01-25T12:46:39;99812.51;;;12.65;50.11
83025;BME280;72958;53.326;-1.496;2024-01-25T12:49:11;99814.78;;;12.00;51.21
83025;BME280;72958;53.326;-1.496;2024-01-25T12:51:35;99809.19;;;10.92;54.49
83025;BME280;72958;53.326;-1.496;2024-01-25T12:54:16;99805.76;;;10.46;56.05
83025;BME280;72958;53.326;-1.496;2024-01-25T12:57:00;99804.37;;;10.90;55.62
83025;BME280;72958;53.326;-1.496;2024-01-25T12:59:33;99803.29;;;10.97;55.04
83025;BME280;72958;53.326;-1.496;2024-01-25T13:02:08;99795.59;;;11.18;55.04
83025;BME280;72958;53.326;-1.496;2024-01-25T13:05:14;99796.25;;;10.97;54.67
83025;BME280;72958;53.326;-1.496;2024-01-25T13:08:07;99786.85;;;11.03;55.28
83025;BME280;72958;53.326;-1.496;2024-01-25T13:10:33;99787.14;;;11.45;54.79
83025;BME280;72958;53.326;-1.496;2024-01-25T13:13:01;99788.05;;;11.10;54.99
83025;BME280;72958;53.326;-1.496;2024-01-25T13:15:35;99784.85;;;11.02;54.76
83025;BME280;72958;53.326;-1.496;2024-01-25T13:18:18;99787.37;;;11.14;54.53
83025;BME280;72958;53.326;-1.496;2024-01-25T13:20:54;99781.55;;;11.32;54.93
83025;BME280;72958;53.326;-1.496;2024-01-25T13:23:41;99770.16;;;10.19;56.35
83025;BME280;72958;53.326;-1.496;2024-01-25T13:25:53;99768.89;;;10.59;56.21
83025;BME280;72958;53.326;-1.496;2024-01-25T13:28:18;99759.62;;;11.22;54.95
83025;BME280;72958;53.326;-1.496;2024-01-25T13:30:45;99757.36;;;11.08;55.25
83025;BME280;72958;53.326;-1.496;2024-01-25T13:33:35;99760.90;;;11.32;55.35
83025;BME280;72958;53.326;-1.496;2024-01-25T13:36:05;99753.58;;;10.63;55.92
83025;BME280;72958;53.326;-1.496;2024-01-25T13:38:51;99747.00;;;11.78;54.72
83025;BME280;72958;53.326;-1.496;2024-01-25T13:41:37;99746.70;;;11.53;54.85
83025;BME280;72958;53.326;-1.496;2024-01-25T13:44:30;99737.46;;;11.54;54.47
83025;BME280;72958;53.326;-1.496;2024-01-25T13:46:56;99731.77;;;12.14;52.42
83025;BME280;72958;53.326;-1.496;2024-01-25T13:49:29;99724.15;;;11.63;53.67
83025;BME280;72958;53.326;-1.496;2024-01-25T13:52:21;99718.36;;;11.43;54.13
83025;BME280;72958;53.326;-1.496;2024-01-25T13:55:12;99711.93;;;11.85;53.00
83025;BME280;72958;53.326;-1.496;2024-01-25T13:57:42;99707.35;;;12.20;52.64
83025;BME280;72958;53.326;-1.496;2024-01-25T14:00:14;99696.21;;;12.54;52.14
83025;BME280;72958;53.326;-1.496;2024-01-25T14:02:43;99686.61;;;11.56;54.92
83025;BME280;72958;53.326;-1.496;2024-01-25T14:05:21;99682.74;;;11.63;55.54
83025;BME280;72958;53.326;-1.496;2024-01-25T14:08:44;99686.49;;;11.98;53.90
83025;BME280;72958;53.326;-1.496;2024-01-25T14:11:36;99681.97;;;12.11;53.50
83025;BME280;72958;53.326;-1.496;2024-01-25T14:14:26;99684.09;;;11.39;55.89
83025;BME280;72958;53.326;-1.496;2024-01-25T14:16:58;99674.40;;;11.80;54.88
83025;BME280;72958;53.326;-1.496;2024-01-25T14:19:25;99673.73;;;11.45;54.66